sensor_id;sensor_type;location;lat;lon;timestamp;P1;durP1;ratioP1;P2;durP2;ratioP2
15295;SDS011;7749;49.964;7.890;2023-06-26T00:00:14;5.82;;;5.22;;
15295;SDS011;7749;49.964;7.890;2023-06-26T00:02:42;8.55;;;4.80;;
15295;SDS011;7749;49.964;7.890;2023-06-26T00:05:09;5.97;;;5.25;;
15295;SDS011;7749;49.964;7.890;2023-06-26T00:07:37;5.57;;;5.07;;
15295;SDS011;7749;49.964;7.890;2023-06-26T00:10:06;5.68;;;5.18;;
15295;SDS011;7749;49.964;7.890;2023-06-26T00:12:34;5.45;;;4.80;;
15295;SDS011;7749;49.964;7.890;2023-06-26T00:15:02;5.95;;;5.35;;
15295;SDS011;7749;49.964;7.890;2023-06-26T00:17:30;5.82;;;5.32;;
15295;SDS011;7749;49.964;7.890;2023-06-26T00:20:03;5.15;;;4.68;;
15295;SDS011;7749;49.964;7.890;2023-06-26T00:22:35;5.90;;;5.28;;
15295;SDS011;7749;49.964;7.890;2023-06-26T00:25:02;5.40;;;4.90;;
15295;SDS011;7749;49.964;7.890;2023-06-26T00:27:30;6.30;;;5.35;;
15295;SDS011;7749;49.964;7.890;2023-06-26T00:29:58;5.57;;;5.07;;
15295;SDS011;7749;49.964;7.890;2023-06-26T00:32:25;5.22;;;4.80;;
15295;SDS011;7749;49.964;7.890;2023-06-26T00:34:53;5.38;;;4.88;;
15295;SDS011;7749;49.964;7.890;2023-06-26T00:37:20;5.88;;;5.38;;
15295;SDS011;7749;49.964;7.890;2023-06-26T00:39:49;5.93;;;5.28;;
15295;SDS011;7749;49.964;7.890;2023-06-26T00:42:17;5.88;;;5.38;;
15295;SDS011;7749;49.964;7.890;2023-06-26T00:44:45;5.68;;;4.97;;
15295;SDS011;7749;49.964;7.890;2023-06-26T00:47:13;7.50;;;5.38;;
15295;SDS011;7749;49.964;7.890;2023-06-26T00:49:42;5.75;;;5.25;;
15295;SDS011;7749;49.964;7.890;2023-06-26T00:52:09;7.10;;;5.25;;
15295;SDS011;7749;49.964;7.890;2023-06-26T00:54:37;5.80;;;5.30;;
15295;SDS011;7749;49.964;7.890;2023-06-26T00:57:04;6.57;;;5.18;;
15295;SDS011;7749;49.964;7.890;2023-06-26T00:59:32;5.38;;;4.75;;
15295;SDS011;7749;49.964;7.890;2023-06-26T01:01:59;5.88;;;5.28;;
15295;SDS011;7749;49.964;7.890;2023-06-26T01:04:27;5.95;;;5.45;;
15295;SDS011;7749;49.964;7.890;2023-06-26T01:06:59;5.63;;;5.10;;
15295;SDS011;7749;49.964;7.890;2023-06-26T01:09:29;5.95;;;5.18;;
15295;SDS011;7749;49.964;7.890;2023-06-26T01:11:57;5.45;;;4.95;;
15295;SDS011;7749;49.964;7.890;2023-06-26T01:14:25;5.85;;;5.35;;
15295;SDS011;7749;49.964;7.890;2023-06-26T01:16:53;5.93;;;5.32;;
15295;SDS011;7749;49.964;7.890;2023-06-26T01:19:25;6.55;;;5.50;;
15295;SDS011;7749;49.964;7.890;2023-06-26T01:22:17;5.75;;;5.25;;
15295;SDS011;7749;49.964;7.890;2023-06-26T01:24:56;8.35;;;5.95;;
15295;SDS011;7749;49.964;7.890;2023-06-26T01:27:31;6.03;;;5.43;;
15295;SDS011;7749;49.964;7.890;2023-06-26T01:30:00;5.63;;;5.13;;
15295;SDS011;7749;49.964;7.890;2023-06-26T01:32:31;5.75;;;5.20;;
15295;SDS011;7749;49.964;7.890;2023-06-26T01:34:59;6.03;;;5.22;;
15295;SDS011;7749;49.964;7.890;2023-06-26T01:37:28;7.05;;;5.10;;
15295;SDS011;7749;49.964;7.890;2023-06-26T01:39:55;6.40;;;5.80;;
15295;SDS011;7749;49.964;7.890;2023-06-26T01:42:23;6.25;;;5.65;;
15295;SDS011;7749;49.964;7.890;2023-06-26T01:44:51;6.28;;;5.63;;
15295;SDS011;7749;49.964;7.890;2023-06-26T01:47:21;5.63;;;5.13;;
15295;SDS011;7749;49.964;7.890;2023-06-26T01:55:24;6.55;;;5.57;;
15295;SDS011;7749;49.964;7.890;2023-06-26T01:57:54;6.35;;;5.75;;
15295;SDS011;7749;49.964;7.890;2023-06-26T02:00:23;6.57;;;5.30;;
15295;SDS011;7749;49.964;7.890;2023-06-26T02:02:52;5.82;;;5.22;;
15295;SDS011;7749;49.964;7.890;2023-06-26T02:05:20;6.88;;;5.53;;
15295;SDS011;7749;49.964;7.890;2023-06-26T02:07:47;6.03;;;5.40;;
15295;SDS011;7749;49.964;7.890;2023-06-26T02:10:15;6.20;;;5.60;;
15295;SDS011;7749;49.964;7.890;2023-06-26T02:12:42;6.80;;;5.43;;
15295;SDS011;7749;49.964;7.890;2023-06-26T02:15:10;6.78;;;5.78;;
15295;SDS011;7749;49.964;7.890;2023-06-26T02:17:37;7.18;;;6.25;;
15295;SDS011;7749;49.964;7.890;2023-06-26T02:20:05;5.82;;;5.03;;
15295;SDS011;7749;49.964;7.890;2023-06-26T02:22:34;5.60;;;5.10;;
15295;SDS011;7749;49.964;7.890;2023-06-26T02:25:02;6.55;;;5.80;;
15295;SDS011;7749;49.964;7.890;2023-06-26T02:27:29;6.18;;;5.68;;
15295;SDS011;7749;49.964;7.890;2023-06-26T02:29:57;5.90;;;5.30;;
15295;SDS011;7749;49.964;7.890;2023-06-26T02:32:24;6.03;;;5.50;;
15295;SDS011;7749;49.964;7.890;2023-06-26T02:34:51;6.30;;;5.47;;
15295;SDS011;7749;49.964;7.890;2023-06-26T02:37:20;6.45;;;5.25;;
15295;SDS011;7749;49.964;7.890;2023-06-26T02:39:48;5.72;;;5.05;;
15295;SDS011;7749;49.964;7.890;2023-06-26T02:42:15;6.20;;;5.53;;
15295;SDS011;7749;49.964;7.890;2023-06-26T02:44:43;6.18;;;5.68;;
15295;SDS011;7749;49.964;7.890;2023-06-26T02:47:10;6.22;;;5.63;;
15295;SDS011;7749;49.964;7.890;2023-06-26T02:49:38;6.55;;;5.88;;
15295;SDS011;7749;49.964;7.890;2023-06-26T02:52:05;6.30;;;5.70;;
15295;SDS011;7749;49.964;7.890;2023-06-26T02:54:33;6.85;;;6.15;;
15295;SDS011;7749;49.964;7.890;2023-06-26T02:57:00;6.20;;;5.60;;
15295;SDS011;7749;49.964;7.890;2023-06-26T02:59:27;5.70;;;5.18;;
15295;SDS011;7749;49.964;7.890;2023-06-26T03:01:55;7.30;;;5.78;;
15295;SDS011;7749;49.964;7.890;2023-06-26T03:04:22;5.70;;;5.05;;
15295;SDS011;7749;49.964;7.890;2023-06-26T03:06:50;6.47;;;5.25;;
15295;SDS011;7749;49.964;7.890;2023-06-26T03:09:17;5.90;;;5.40;;
15295;SDS011;7749;49.964;7.890;2023-06-26T03:11:45;6.90;;;5.28;;
15295;SDS011;7749;49.964;7.890;2023-06-26T03:14:12;6.63;;;6.03;;
15295;SDS011;7749;49.964;7.890;2023-06-26T03:16:40;6.85;;;5.28;;
15295;SDS011;7749;49.964;7.890;2023-06-26T03:19:07;9.25;;;5.85;;
15295;SDS011;7749;49.964;7.890;2023-06-26T03:21:35;7.45;;;6.20;;
15295;SDS011;7749;49.964;7.890;2023-06-26T03:24:02;7.38;;;6.40;;
15295;SDS011;7749;49.964;7.890;2023-06-26T03:26:30;7.45;;;6.03;;
15295;SDS011;7749;49.964;7.890;2023-06-26T03:28:57;7.43;;;6.25;;
15295;SDS011;7749;49.964;7.890;2023-06-26T03:31:25;7.38;;;5.75;;
15295;SDS011;7749;49.964;7.890;2023-06-26T03:33:52;6.30;;;5.70;;
15295;SDS011;7749;49.964;7.890;2023-06-26T03:36:20;6.82;;;6.10;;
15295;SDS011;7749;49.964;7.890;2023-06-26T03:38:47;6.82;;;6.10;;
15295;SDS011;7749;49.964;7.890;2023-06-26T03:41:15;8.07;;;5.85;;
15295;SDS011;7749;49.964;7.890;2023-06-26T03:43:42;6.93;;;5.93;;
15295;SDS011;7749;49.964;7.890;2023-06-26T03:46:11;6.25;;;5.70;;
15295;SDS011;7749;49.964;7.890;2023-06-26T03:48:38;7.60;;;6.47;;
15295;SDS011;7749;49.964;7.890;2023-06-26T03:51:06;7.30;;;6.22;;
15295;SDS011;7749;49.964;7.890;2023-06-26T03:53:34;7.55;;;6.82;;
15295;SDS011;7749;49.964;7.890;2023-06-26T03:56:01;6.97;;;6.28;;
15295;SDS011;7749;49.964;7.890;2023-06-26T03:58:29;6.78;;;6.10;;
15295;SDS011;7749;49.964;7.890;2023-06-26T04:00:56;7.53;;;5.93;;
15295;SDS011;7749;49.964;7.890;2023-06-26T04:03:24;8.13;;;6.28;;
15295;SDS011;7749;49.964;7.890;2023-06-26T04:05:52;6.68;;;5.90;;
15295;SDS011;7749;49.964;7.890;2023-06-26T04:08:19;7.07;;;6.43;;
15295;SDS011;7749;49.964;7.890;2023-06-26T04:10:47;6.97;;;6.35;;
15295;SDS011;7749;49.964;7.890;2023-06-26T04:13:14;7.22;;;6.50;;
15295;SDS011;7749;49.964;7.890;2023-06-26T04:15:42;6.60;;;5.68;;
15295;SDS011;7749;49.964;7.890;2023-06-26T04:18:09;7.15;;;6.45;;
15295;SDS011;7749;49.964;7.890;2023-06-26T04:20:41;7.18;;;6.47;;
15295;SDS011;7749;49.964;7.890;2023-06-26T04:23:28;7.00;;;6.30;;
15295;SDS011;7749;49.964;7.890;2023-06-26T04:25:57;6.82;;;6.13;;
15295;SDS011;7749;49.964;7.890;2023-06-26T04:28:25;7.28;;;6.57;;
15295;SDS011;7749;49.964;7.890;2023-06-26T04:30:52;6.65;;;5.97;;
15295;SDS011;7749;49.964;7.890;2023-06-26T04:33:20;7.07;;;6.38;;
15295;SDS011;7749;49.964;7.890;2023-06-26T04:35:47;7.07;;;6.38;;
15295;SDS011;7749;49.964;7.890;2023-06-26T04:38:15;8.60;;;6.65;;
15295;SDS011;7749;49.964;7.890;2023-06-26T04:40:43;7.05;;;6.32;;
15295;SDS011;7749;49.964;7.890;2023-06-26T04:43:10;6.70;;;6.00;;
15295;SDS011;7749;49.964;7.890;2023-06-26T04:45:38;6.88;;;6.07;;
15295;SDS011;7749;49.964;7.890;2023-06-26T04:48:05;7.75;;;6.20;;
15295;SDS011;7749;49.964;7.890;2023-06-26T04:50:33;7.72;;;6.40;;
15295;SDS011;7749;49.964;7.890;2023-06-26T04:53:00;9.05;;;6.20;;
15295;SDS011;7749;49.964;7.890;2023-06-26T04:55:28;7.00;;;6.30;;
15295;SDS011;7749;49.964;7.890;2023-06-26T04:57:55;6.88;;;6.15;;
15295;SDS011;7749;49.964;7.890;2023-06-26T05:00:23;6.90;;;6.30;;
15295;SDS011;7749;49.964;7.890;2023-06-26T05:02:51;7.05;;;6.13;;
15295;SDS011;7749;49.964;7.890;2023-06-26T05:05:27;7.60;;;6.30;;
15295;SDS011;7749;49.964;7.890;2023-06-26T05:07:55;6.82;;;5.93;;
15295;SDS011;7749;49.964;7.890;2023-06-26T05:10:23;7.22;;;6.07;;
15295;SDS011;7749;49.964;7.890;2023-06-26T05:12:50;7.00;;;6.30;;
15295;SDS011;7749;49.964;7.890;2023-06-26T05:15:18;6.78;;;6.07;;
15295;SDS011;7749;49.964;7.890;2023-06-26T05:17:46;6.97;;;6.25;;
15295;SDS011;7749;49.964;7.890;2023-06-26T05:20:14;7.18;;;6.35;;
15295;SDS011;7749;49.964;7.890;2023-06-26T05:22:41;6.93;;;6.22;;
15295;SDS011;7749;49.964;7.890;2023-06-26T05:25:09;7.10;;;6.40;;
15295;SDS011;7749;49.964;7.890;2023-06-26T05:27:37;7.05;;;6.00;;
15295;SDS011;7749;49.964;7.890;2023-06-26T05:30:05;10.32;;;6.10;;
15295;SDS011;7749;49.964;7.890;2023-06-26T05:32:34;7.22;;;6.50;;
15295;SDS011;7749;49.964;7.890;2023-06-26T05:35:05;9.00;;;6.70;;
15295;SDS011;7749;49.964;7.890;2023-06-26T05:37:34;7.20;;;6.50;;
15295;SDS011;7749;49.964;7.890;2023-06-26T05:40:01;7.20;;;6.10;;
15295;SDS011;7749;49.964;7.890;2023-06-26T05:42:30;8.25;;;6.30;;
15295;SDS011;7749;49.964;7.890;2023-06-26T05:44:58;6.07;;;5.55;;
15295;SDS011;7749;49.964;7.890;2023-06-26T05:47:25;7.50;;;6.75;;
15295;SDS011;7749;49.964;7.890;2023-06-26T05:49:53;7.15;;;6.45;;
15295;SDS011;7749;49.964;7.890;2023-06-26T05:52:21;6.78;;;6.07;;
15295;SDS011;7749;49.964;7.890;2023-06-26T05:54:48;6.38;;;5.70;;
15295;SDS011;7749;49.964;7.890;2023-06-26T05:57:16;6.40;;;5.80;;
15295;SDS011;7749;49.964;7.890;2023-06-26T05:59:44;7.65;;;6.85;;
15295;SDS011;7749;49.964;7.890;2023-06-26T06:02:13;9.15;;;6.43;;
15295;SDS011;7749;49.964;7.890;2023-06-26T06:04:41;7.57;;;6.45;;
15295;SDS011;7749;49.964;7.890;2023-06-26T06:07:08;8.13;;;6.25;;
15295;SDS011;7749;49.964;7.890;2023-06-26T06:09:36;8.02;;;6.50;;
15295;SDS011;7749;49.964;7.890;2023-06-26T06:12:05;11.27;;;6.20;;
15295;SDS011;7749;49.964;7.890;2023-06-26T06:14:35;6.90;;;6.20;;
15295;SDS011;7749;49.964;7.890;2023-06-26T06:17:03;6.35;;;5.75;;
15295;SDS011;7749;49.964;7.890;2023-06-26T06:19:30;8.40;;;7.60;;
15295;SDS011;7749;49.964;7.890;2023-06-26T06:22:01;7.10;;;6.15;;
15295;SDS011;7749;49.964;7.890;2023-06-26T06:24:29;6.82;;;6.13;;
15295;SDS011;7749;49.964;7.890;2023-06-26T06:26:56;6.80;;;5.75;;
15295;SDS011;7749;49.964;7.890;2023-06-26T06:29:25;6.55;;;5.90;;
15295;SDS011;7749;49.964;7.890;2023-06-26T06:31:53;7.47;;;5.82;;
15295;SDS011;7749;49.964;7.890;2023-06-26T06:34:20;8.05;;;6.63;;
15295;SDS011;7749;49.964;7.890;2023-06-26T06:36:48;7.32;;;6.38;;
15295;SDS011;7749;49.964;7.890;2023-06-26T06:39:16;6.68;;;6.00;;
15295;SDS011;7749;49.964;7.890;2023-06-26T06:41:44;6.78;;;6.18;;
15295;SDS011;7749;49.964;7.890;2023-06-26T06:44:11;6.95;;;6.05;;
15295;SDS011;7749;49.964;7.890;2023-06-26T06:46:39;6.60;;;6.00;;
15295;SDS011;7749;49.964;7.890;2023-06-26T06:49:07;7.03;;;6.00;;
15295;SDS011;7749;49.964;7.890;2023-06-26T06:51:35;7.10;;;5.68;;
15295;SDS011;7749;49.964;7.890;2023-06-26T06:54:03;7.10;;;6.13;;
15295;SDS011;7749;49.964;7.890;2023-06-26T06:56:31;6.30;;;5.35;;
15295;SDS011;7749;49.964;7.890;2023-06-26T06:59:00;6.68;;;5.75;;
15295;SDS011;7749;49.964;7.890;2023-06-26T07:01:27;6.40;;;5.63;;
15295;SDS011;7749;49.964;7.890;2023-06-26T07:03:55;7.28;;;6.13;;
15295;SDS011;7749;49.964;7.890;2023-06-26T07:06:23;6.47;;;5.80;;
15295;SDS011;7749;49.964;7.890;2023-06-26T07:08:51;6.25;;;5.65;;
15295;SDS011;7749;49.964;7.890;2023-06-26T07:11:19;6.82;;;5.65;;
15295;SDS011;7749;49.964;7.890;2023-06-26T07:13:46;8.68;;;5.68;;
15295;SDS011;7749;49.964;7.890;2023-06-26T07:16:14;5.85;;;5.25;;
15295;SDS011;7749;49.964;7.890;2023-06-26T07:18:42;6.85;;;6.10;;
15295;SDS011;7749;49.964;7.890;2023-06-26T07:21:10;6.78;;;5.95;;
15295;SDS011;7749;49.964;7.890;2023-06-26T07:23:38;6.40;;;5.60;;
15295;SDS011;7749;49.964;7.890;2023-06-26T07:26:05;14.35;;;12.77;;
15295;SDS011;7749;49.964;7.890;2023-06-26T07:28:33;7.18;;;5.70;;
15295;SDS011;7749;49.964;7.890;2023-06-26T07:31:00;6.40;;;5.65;;
15295;SDS011;7749;49.964;7.890;2023-06-26T07:33:28;6.18;;;5.68;;
15295;SDS011;7749;49.964;7.890;2023-06-26T07:35:55;6.05;;;5.20;;
15295;SDS011;7749;49.964;7.890;2023-06-26T07:38:23;6.20;;;5.60;;
15295;SDS011;7749;49.964;7.890;2023-06-26T07:40:51;6.28;;;5.70;;
15295;SDS011;7749;49.964;7.890;2023-06-26T07:43:18;6.93;;;5.60;;
15295;SDS011;7749;49.964;7.890;2023-06-26T07:45:46;7.10;;;5.50;;
15295;SDS011;7749;49.964;7.890;2023-06-26T07:48:13;8.75;;;5.70;;
15295;SDS011;7749;49.964;7.890;2023-06-26T07:50:41;6.15;;;5.55;;
15295;SDS011;7749;49.964;7.890;2023-06-26T07:53:09;8.57;;;5.75;;
15295;SDS011;7749;49.964;7.890;2023-06-26T07:55:36;7.78;;;5.20;;
15295;SDS011;7749;49.964;7.890;2023-06-26T07:58:04;6.13;;;5.53;;
15295;SDS011;7749;49.964;7.890;2023-06-26T08:00:31;6.05;;;5.50;;
15295;SDS011;7749;49.964;7.890;2023-06-26T08:02:59;6.85;;;5.72;;
15295;SDS011;7749;49.964;7.890;2023-06-26T08:05:27;6.18;;;5.57;;
15295;SDS011;7749;49.964;7.890;2023-06-26T08:07:55;6.68;;;5.38;;
15295;SDS011;7749;49.964;7.890;2023-06-26T08:10:22;6.32;;;5.47;;
15295;SDS011;7749;49.964;7.890;2023-06-26T08:12:50;5.63;;;5.13;;
15295;SDS011;7749;49.964;7.890;2023-06-26T08:15:18;5.72;;;5.22;;
15295;SDS011;7749;49.964;7.890;2023-06-26T08:17:46;5.85;;;5.25;;
15295;SDS011;7749;49.964;7.890;2023-06-26T08:20:14;5.47;;;4.97;;
15295;SDS011;7749;49.964;7.890;2023-06-26T08:22:42;6.65;;;5.70;;
15295;SDS011;7749;49.964;7.890;2023-06-26T08:25:10;7.03;;;5.22;;
15295;SDS011;7749;49.964;7.890;2023-06-26T08:27:38;6.10;;;5.50;;
15295;SDS011;7749;49.964;7.890;2023-06-26T08:30:05;5.60;;;5.03;;
15295;SDS011;7749;49.964;7.890;2023-06-26T08:32:33;7.55;;;6.15;;
15295;SDS011;7749;49.964;7.890;2023-06-26T08:35:01;6.18;;;5.57;;
15295;SDS011;7749;49.964;7.890;2023-06-26T08:37:29;6.40;;;5.80;;
15295;SDS011;7749;49.964;7.890;2023-06-26T08:40:00;7.22;;;6.07;;
15295;SDS011;7749;49.964;7.890;2023-06-26T08:42:27;7.28;;;5.15;;
15295;SDS011;7749;49.964;7.890;2023-06-26T08:44:55;5.97;;;5.18;;
15295;SDS011;7749;49.964;7.890;2023-06-26T08:47:28;5.78;;;5.28;;
15295;SDS011;7749;49.964;7.890;2023-06-26T08:50:07;5.72;;;5.22;;
15295;SDS011;7749;49.964;7.890;2023-06-26T08:52:43;5.85;;;5.05;;
15295;SDS011;7749;49.964;7.890;2023-06-26T08:55:13;9.38;;;5.75;;
15295;SDS011;7749;49.964;7.890;2023-06-26T09:00:29;6.30;;;4.93;;
15295;SDS011;7749;49.964;7.890;2023-06-26T09:02:57;5.68;;;5.10;;
15295;SDS011;7749;49.964;7.890;2023-06-26T09:05:28;6.07;;;4.57;;
15295;SDS011;7749;49.964;7.890;2023-06-26T09:07:58;5.00;;;4.60;;
15295;SDS011;7749;49.964;7.890;2023-06-26T09:10:26;5.70;;;5.20;;
15295;SDS011;7749;49.964;7.890;2023-06-26T09:12:56;5.45;;;4.95;;
15295;SDS011;7749;49.964;7.890;2023-06-26T09:15:36;6.75;;;4.95;;
15295;SDS011;7749;49.964;7.890;2023-06-26T09:18:11;5.50;;;4.55;;
15295;SDS011;7749;49.964;7.890;2023-06-26T09:20:41;5.35;;;4.85;;
15295;SDS011;7749;49.964;7.890;2023-06-26T09:23:15;5.25;;;4.75;;
15295;SDS011;7749;49.964;7.890;2023-06-26T09:25:43;5.32;;;4.93;;
15295;SDS011;7749;49.964;7.890;2023-06-26T09:28:14;5.25;;;4.75;;
15295;SDS011;7749;49.964;7.890;2023-06-26T09:30:42;5.72;;;5.03;;
15295;SDS011;7749;49.964;7.890;2023-06-26T09:33:13;5.90;;;5.20;;
15295;SDS011;7749;49.964;7.890;2023-06-26T09:35:50;6.03;;;4.95;;
15295;SDS011;7749;49.964;7.890;2023-06-26T09:38:18;4.95;;;4.55;;
15295;SDS011;7749;49.964;7.890;2023-06-26T09:40:45;4.75;;;4.10;;
15295;SDS011;7749;49.964;7.890;2023-06-26T09:43:13;6.18;;;4.50;;
15295;SDS011;7749;49.964;7.890;2023-06-26T09:45:41;5.18;;;4.68;;
15295;SDS011;7749;49.964;7.890;2023-06-26T09:48:08;4.88;;;4.47;;
15295;SDS011;7749;49.964;7.890;2023-06-26T09:50:36;4.63;;;4.13;;
15295;SDS011;7749;49.964;7.890;2023-06-26T09:53:26;4.75;;;4.32;;
15295;SDS011;7749;49.964;7.890;2023-06-26T09:55:54;4.68;;;4.28;;
15295;SDS011;7749;49.964;7.890;2023-06-26T09:58:22;5.00;;;4.45;;
15295;SDS011;7749;49.964;7.890;2023-06-26T10:00:51;5.20;;;4.25;;
15295;SDS011;7749;49.964;7.890;2023-06-26T10:03:19;5.10;;;4.18;;
15295;SDS011;7749;49.964;7.890;2023-06-26T10:05:47;6.78;;;4.22;;
15295;SDS011;7749;49.964;7.890;2023-06-26T10:08:16;5.75;;;4.72;;
15295;SDS011;7749;49.964;7.890;2023-06-26T10:10:44;4.68;;;4.32;;
15295;SDS011;7749;49.964;7.890;2023-06-26T10:13:16;5.03;;;4.63;;
15295;SDS011;7749;49.964;7.890;2023-06-26T10:15:49;5.28;;;4.78;;
15295;SDS011;7749;49.964;7.890;2023-06-26T10:18:18;5.75;;;4.80;;
15295;SDS011;7749;49.964;7.890;2023-06-26T10:20:50;7.72;;;4.30;;
15295;SDS011;7749;49.964;7.890;2023-06-26T10:23:22;5.13;;;4.63;;
15295;SDS011;7749;49.964;7.890;2023-06-26T10:26:31;6.18;;;5.57;;
15295;SDS011;7749;49.964;7.890;2023-06-26T10:29:05;6.18;;;5.18;;
15295;SDS011;7749;49.964;7.890;2023-06-26T10:31:34;6.40;;;5.80;;
15295;SDS011;7749;49.964;7.890;2023-06-26T10:34:04;7.35;;;6.05;;
15295;SDS011;7749;49.964;7.890;2023-06-26T10:36:32;6.25;;;5.60;;
15295;SDS011;7749;49.964;7.890;2023-06-26T10:39:04;8.55;;;6.88;;
15295;SDS011;7749;49.964;7.890;2023-06-26T10:41:36;7.68;;;6.88;;
15295;SDS011;7749;49.964;7.890;2023-06-26T10:44:16;7.22;;;6.10;;
15295;SDS011;7749;49.964;7.890;2023-06-26T10:46:54;7.25;;;5.85;;
15295;SDS011;7749;49.964;7.890;2023-06-26T10:49:26;6.50;;;5.82;;
15295;SDS011;7749;49.964;7.890;2023-06-26T10:51:56;7.93;;;6.07;;
15295;SDS011;7749;49.964;7.890;2023-06-26T10:54:28;6.75;;;6.15;;
15295;SDS011;7749;49.964;7.890;2023-06-26T10:57:01;6.20;;;5.60;;
15295;SDS011;7749;49.964;7.890;2023-06-26T10:59:30;7.55;;;5.70;;
15295;SDS011;7749;49.964;7.890;2023-06-26T11:02:04;6.97;;;6.15;;
15295;SDS011;7749;49.964;7.890;2023-06-26T11:04:45;6.90;;;6.20;;
15295;SDS011;7749;49.964;7.890;2023-06-26T11:07:23;6.53;;;5.85;;
15295;SDS011;7749;49.964;7.890;2023-06-26T11:09:54;6.85;;;5.97;;
15295;SDS011;7749;49.964;7.890;2023-06-26T11:15:10;6.40;;;5.63;;
15295;SDS011;7749;49.964;7.890;2023-06-26T11:17:40;6.57;;;5.32;;
15295;SDS011;7749;49.964;7.890;2023-06-26T11:20:12;6.10;;;5.13;;
15295;SDS011;7749;49.964;7.890;2023-06-26T11:22:42;6.70;;;5.45;;
15295;SDS011;7749;49.964;7.890;2023-06-26T11:25:11;6.38;;;5.88;;
15295;SDS011;7749;49.964;7.890;2023-06-26T11:27:39;5.32;;;4.82;;
15295;SDS011;7749;49.964;7.890;2023-06-26T11:30:08;6.45;;;5.05;;
15295;SDS011;7749;49.964;7.890;2023-06-26T11:32:38;5.80;;;4.35;;
15295;SDS011;7749;49.964;7.890;2023-06-26T11:35:07;4.50;;;4.10;;
15295;SDS011;7749;49.964;7.890;2023-06-26T11:37:36;5.07;;;4.28;;
15295;SDS011;7749;49.964;7.890;2023-06-26T11:40:17;4.18;;;3.83;;
15295;SDS011;7749;49.964;7.890;2023-06-26T11:42:46;4.97;;;3.65;;
15295;SDS011;7749;49.964;7.890;2023-06-26T11:45:14;5.38;;;3.78;;
15295;SDS011;7749;49.964;7.890;2023-06-26T11:47:42;3.70;;;3.40;;
15295;SDS011;7749;49.964;7.890;2023-06-26T11:50:16;3.72;;;2.90;;
15295;SDS011;7749;49.964;7.890;2023-06-26T11:52:44;4.50;;;3.58;;
15295;SDS011;7749;49.964;7.890;2023-06-26T11:55:12;6.32;;;4.00;;
15295;SDS011;7749;49.964;7.890;2023-06-26T11:57:40;4.15;;;3.75;;
15295;SDS011;7749;49.964;7.890;2023-06-26T12:00:14;3.40;;;3.10;;
15295;SDS011;7749;49.964;7.890;2023-06-26T12:02:44;3.17;;;2.97;;
15295;SDS011;7749;49.964;7.890;2023-06-26T12:05:13;3.28;;;2.67;;
15295;SDS011;7749;49.964;7.890;2023-06-26T12:07:42;3.28;;;2.83;;
15295;SDS011;7749;49.964;7.890;2023-06-26T12:10:13;3.38;;;3.08;;
15295;SDS011;7749;49.964;7.890;2023-06-26T12:12:42;4.68;;;2.78;;
15295;SDS011;7749;49.964;7.890;2023-06-26T12:15:15;4.28;;;2.90;;
15295;SDS011;7749;49.964;7.890;2023-06-26T12:17:43;3.85;;;2.35;;
15295;SDS011;7749;49.964;7.890;2023-06-26T12:20:18;4.45;;;2.80;;
15295;SDS011;7749;49.964;7.890;2023-06-26T12:22:49;3.65;;;2.95;;
15295;SDS011;7749;49.964;7.890;2023-06-26T12:25:23;5.93;;;2.75;;
15295;SDS011;7749;49.964;7.890;2023-06-26T12:27:52;3.00;;;2.75;;
15295;SDS011;7749;49.964;7.890;2023-06-26T12:30:32;2.88;;;2.67;;
15295;SDS011;7749;49.964;7.890;2023-06-26T12:33:19;2.72;;;2.53;;
15295;SDS011;7749;49.964;7.890;2023-06-26T12:35:56;3.88;;;2.72;;
15295;SDS011;7749;49.964;7.890;2023-06-26T12:38:49;3.67;;;2.45;;
15295;SDS011;7749;49.964;7.890;2023-06-26T12:41:48;3.47;;;2.40;;
15295;SDS011;7749;49.964;7.890;2023-06-26T12:44:22;2.88;;;2.40;;
15295;SDS011;7749;49.964;7.890;2023-06-26T12:46:56;4.57;;;2.53;;
15295;SDS011;7749;49.964;7.890;2023-06-26T12:49:37;4.50;;;2.22;;
15295;SDS011;7749;49.964;7.890;2023-06-26T12:52:09;2.60;;;2.17;;
15295;SDS011;7749;49.964;7.890;2023-06-26T12:54:41;2.72;;;2.25;;
15295;SDS011;7749;49.964;7.890;2023-06-26T12:57:10;4.25;;;2.67;;
15295;SDS011;7749;49.964;7.890;2023-06-26T12:59:38;2.58;;;2.33;;
15295;SDS011;7749;49.964;7.890;2023-06-26T13:02:05;7.15;;;2.40;;
15295;SDS011;7749;49.964;7.890;2023-06-26T13:04:33;5.55;;;2.40;;
15295;SDS011;7749;49.964;7.890;2023-06-26T13:07:02;2.72;;;2.28;;
15295;SDS011;7749;49.964;7.890;2023-06-26T13:09:31;3.47;;;2.60;;
15295;SDS011;7749;49.964;7.890;2023-06-26T13:12:01;3.03;;;2.15;;
15295;SDS011;7749;49.964;7.890;2023-06-26T13:14:31;4.10;;;2.08;;
15295;SDS011;7749;49.964;7.890;2023-06-26T13:17:00;3.65;;;1.85;;
15295;SDS011;7749;49.964;7.890;2023-06-26T13:19:29;4.53;;;2.20;;
15295;SDS011;7749;49.964;7.890;2023-06-26T13:21:56;5.50;;;2.35;;
15295;SDS011;7749;49.964;7.890;2023-06-26T13:24:25;5.28;;;2.60;;
15295;SDS011;7749;49.964;7.890;2023-06-26T13:26:53;3.33;;;2.30;;
15295;SDS011;7749;49.964;7.890;2023-06-26T13:29:20;3.67;;;2.40;;
15295;SDS011;7749;49.964;7.890;2023-06-26T13:31:48;2.78;;;2.40;;
15295;SDS011;7749;49.964;7.890;2023-06-26T13:34:22;3.85;;;2.05;;
15295;SDS011;7749;49.964;7.890;2023-06-26T13:36:50;4.13;;;2.22;;
15295;SDS011;7749;49.964;7.890;2023-06-26T13:39:17;2.63;;;1.95;;
15295;SDS011;7749;49.964;7.890;2023-06-26T13:41:45;3.42;;;2.67;;
15295;SDS011;7749;49.964;7.890;2023-06-26T13:44:13;5.10;;;2.38;;
15295;SDS011;7749;49.964;7.890;2023-06-26T13:46:57;3.17;;;2.50;;
15295;SDS011;7749;49.964;7.890;2023-06-26T13:49:25;3.17;;;2.70;;
15295;SDS011;7749;49.964;7.890;2023-06-26T13:51:52;3.28;;;2.33;;
15295;SDS011;7749;49.964;7.890;2023-06-26T13:54:20;3.83;;;2.75;;
15295;SDS011;7749;49.964;7.890;2023-06-26T13:56:47;2.80;;;2.35;;
15295;SDS011;7749;49.964;7.890;2023-06-26T13:59:15;3.67;;;2.33;;
15295;SDS011;7749;49.964;7.890;2023-06-26T14:01:42;4.03;;;2.58;;
15295;SDS011;7749;49.964;7.890;2023-06-26T14:04:11;2.70;;;2.45;;
15295;SDS011;7749;49.964;7.890;2023-06-26T14:06:38;2.33;;;2.13;;
15295;SDS011;7749;49.964;7.890;2023-06-26T14:09:06;2.80;;;2.30;;
15295;SDS011;7749;49.964;7.890;2023-06-26T14:11:34;4.25;;;2.50;;
15295;SDS011;7749;49.964;7.890;2023-06-26T14:14:01;4.78;;;2.40;;
15295;SDS011;7749;49.964;7.890;2023-06-26T14:16:29;2.30;;;2.10;;
15295;SDS011;7749;49.964;7.890;2023-06-26T14:18:57;4.50;;;2.10;;
15295;SDS011;7749;49.964;7.890;2023-06-26T14:21:24;3.33;;;2.15;;
15295;SDS011;7749;49.964;7.890;2023-06-26T14:23:54;2.25;;;2.05;;
15295;SDS011;7749;49.964;7.890;2023-06-26T14:26:22;2.50;;;2.05;;
15295;SDS011;7749;49.964;7.890;2023-06-26T14:28:49;2.30;;;2.00;;
15295;SDS011;7749;49.964;7.890;2023-06-26T14:31:17;3.88;;;2.20;;
15295;SDS011;7749;49.964;7.890;2023-06-26T14:33:44;3.35;;;2.00;;
15295;SDS011;7749;49.964;7.890;2023-06-26T14:36:12;4.25;;;2.00;;
15295;SDS011;7749;49.964;7.890;2023-06-26T14:38:39;3.60;;;2.22;;
15295;SDS011;7749;49.964;7.890;2023-06-26T14:41:07;4.13;;;2.10;;
15295;SDS011;7749;49.964;7.890;2023-06-26T14:43:35;3.90;;;2.03;;
15295;SDS011;7749;49.964;7.890;2023-06-26T14:46:03;2.50;;;2.22;;
15295;SDS011;7749;49.964;7.890;2023-06-26T14:48:32;4.28;;;2.20;;
15295;SDS011;7749;49.964;7.890;2023-06-26T14:50:59;4.63;;;2.30;;
15295;SDS011;7749;49.964;7.890;2023-06-26T14:53:27;4.88;;;2.50;;
15295;SDS011;7749;49.964;7.890;2023-06-26T14:55:54;4.63;;;2.17;;
15295;SDS011;7749;49.964;7.890;2023-06-26T14:58:22;4.57;;;2.08;;
15295;SDS011;7749;49.964;7.890;2023-06-26T15:00:50;2.85;;;2.15;;
15295;SDS011;7749;49.964;7.890;2023-06-26T15:03:17;3.28;;;2.03;;
15295;SDS011;7749;49.964;7.890;2023-06-26T15:05:45;5.30;;;2.47;;
15295;SDS011;7749;49.964;7.890;2023-06-26T15:08:13;3.47;;;2.10;;
15295;SDS011;7749;49.964;7.890;2023-06-26T15:10:40;3.08;;;2.00;;
15295;SDS011;7749;49.964;7.890;2023-06-26T15:13:09;2.67;;;1.92;;
15295;SDS011;7749;49.964;7.890;2023-06-26T15:15:39;2.83;;;2.05;;
15295;SDS011;7749;49.964;7.890;2023-06-26T15:18:07;4.15;;;2.45;;
15295;SDS011;7749;49.964;7.890;2023-06-26T15:20:35;3.95;;;2.10;;
15295;SDS011;7749;49.964;7.890;2023-06-26T15:23:02;4.28;;;2.30;;